Time;durP1;ratioP1;P1;durP2;ratioP2;P2;SDS_P1;SDS_P2;PMS_P1;PMS_P2;Temp;Humidity;BMP_temperature;BMP_pressure;BME280_temperature;BME280_humidity;BME280_pressure;Samples;Min_cycle;Max_cycle;Signal;HPM_P1;HPM_P2
2022/01/03 00:01:20;;;;;;;51.92;9.85;;;11.30;99.90;;;11.47;91.46;100976.09;5073780;28;20037;-69
2022/01/03 00:03:49;;;;;;;47.47;9.73;;;11.30;99.90;;;11.46;91.63;100974.31;5073414;28;20498;-68
2022/01/03 00:06:20;;;;;;;38.28;9.10;;;11.30;99.90;;;11.40;91.31;100965.53;5073873;28;20131;-70
2022/01/03 00:08:50;;;;;;;52.75;10.90;;;11.20;99.90;;;11.49;91.19;100963.72;5073378;28;20049;-68
2022/01/03 00:11:20;;;;;;;49.95;10.15;;;11.30;99.90;;;11.45;91.21;100967.28;5073303;28;20071;-69
2022/01/03 00:13:51;;;;;;;56.08;11.45;;;11.30;99.90;;;11.46;91.44;100962.81;5073820;28;20139;-67
2022/01/03 00:16:23;;;;;;;53.88;9.93;;;11.30;99.90;;;11.39;91.59;100964.66;5072243;28;20490;-68
2022/01/03 00:18:54;;;;;;;54.17;11.02;;;11.30;99.90;;;11.47;91.70;100965.50;5073414;28;20055;-67
2022/01/03 00:21:30;;;;;;;51.88;10.65;;;11.30;99.90;;;11.45;91.41;100961.97;5073392;28;20841;-69
2022/01/03 00:24:08;;;;;;;49.72;9.48;;;11.20;99.90;;;11.43;90.90;100960.22;5073442;28;20071;-70
2022/01/03 00:26:38;;;;;;;56.25;11.52;;;11.30;99.90;;;11.37;90.96;100947.00;5073106;28;20036;-70
2022/01/03 00:29:11;;;;;;;45.10;9.35;;;11.20;99.90;;;11.41;90.77;100954.94;5072047;28;20052;-70
2022/01/03 00:31:42;;;;;;;49.15;9.77;;;11.20;99.90;;;11.47;90.48;100962.84;5071919;28;20048;-69
2022/01/03 00:34:13;;;;;;;45.42;10.85;;;11.30;99.90;;;11.47;90.33;100978.72;5073272;28;20060;-70
2022/01/03 00:36:45;;;;;;;45.45;8.98;;;11.30;99.90;;;11.49;89.93;100969.00;5071866;28;20052;-70
2022/01/03 00:39:15;;;;;;;44.03;9.18;;;11.30;99.90;;;11.47;89.50;100968.13;5072608;28;20393;-69
2022/01/03 00:41:48;;;;;;;54.72;9.85;;;11.30;99.90;;;11.46;89.58;100976.06;5073135;28;20094;-70
2022/01/03 00:44:17;;;;;;;48.70;10.73;;;11.30;99.90;;;11.45;89.29;100984.91;5072853;28;20040;-70
2022/01/03 00:46:47;;;;;;;48.22;10.00;;;11.20;99.90;;;11.51;89.21;100988.41;5073049;28;20127;-70
2022/01/03 00:49:15;;;;;;;51.45;9.93;;;11.30;99.90;;;11.47;89.33;100962.84;5071696;28;20048;-70
2022/01/03 00:51:44;;;;;;;47.72;9.73;;;11.30;99.90;;;11.49;89.45;100984.00;5072369;28;20044;-70
2022/01/03 00:54:14;;;;;;;49.92;10.13;;;11.30;99.90;;;11.49;89.46;100989.31;5073002;28;20098;-70
2022/01/03 00:56:48;;;;;;;47.92;9.30;;;11.30;99.90;;;11.32;89.49;100978.84;5071930;28;20109;-70
2022/01/03 00:59:18;;;;;;;51.88;10.60;;;11.30;99.90;;;11.47;89.62;100989.31;5071622;28;20048;-70
2022/01/03 01:01:50;;;;;;;46.33;9.65;;;11.30;99.90;;;11.42;89.78;100988.47;5071697;28;20044;-70
2022/01/03 01:04:22;;;;;;;48.53;9.95;;;11.20;99.90;;;11.42;89.84;100993.75;5071301;28;20055;-71
2022/01/03 01:06:58;;;;;;;43.55;9.07;;;11.20;99.90;;;11.34;90.05;100995.56;5071850;28;20127;-70
2022/01/03 01:09:29;;;;;;;47.75;9.93;;;11.20;99.90;;;11.33;90.12;100993.81;5072910;28;20073;-70
2022/01/03 01:11:59;;;;;;;48.28;9.65;;;11.10;99.90;;;11.41;89.79;100997.31;5072554;28;20093;-70
2022/01/03 01:14:36;;;;;;;52.22;9.43;;;11.20;99.90;;;11.30;90.07;100995.59;5105234;28;20502;-70
2022/01/03 01:17:06;;;;;;;44.92;9.57;;;11.10;99.90;;;11.28;89.70;100994.72;5071475;28;20048;-70
2022/01/03 01:19:35;;;;;;;43.03;9.07;;;11.10;99.90;;;11.33;90.07;100987.63;5072734;28;20065;-69
2022/01/03 01:22:04;;;;;;;54.78;10.35;;;11.10;99.90;;;11.17;89.93;100964.78;5071343;28;20049;-69
2022/01/03 01:24:45;;;;;;;50.45;9.48;;;11.10;99.90;;;11.23;89.95;100973.56;5071307;28;20482;-70
2022/01/03 01:30:01;;;;;;;46.40;9.43;;;11.10;99.90;;;11.38;89.68;100997.31;5071003;28;20066;-70
2022/01/03 01:32:30;;;;;;;43.28;9.48;;;11.20;99.90;;;11.35;89.58;100993.81;5072610;28;20059;-70
2022/01/03 01:35:00;;;;;;;35.92;8.27;;;11.20;99.90;;;11.30;89.74;100990.31;5072527;28;20098;-70
2022/01/03 01:37:29;;;;;;;;;;;11.10;99.90;;;11.36;89.49;101009.69;5073019;28;20494;-70
2022/01/03 01:39:59;;;;;;;45.15;9.70;;;11.10;99.90;;;11.46;89.28;100992.84;5072519;28;19966;-70
2022/01/03 01:42:32;;;;;;;42.85;8.63;;;11.20;99.90;;;11.28;89.27;100984.16;5105134;28;20413;-69
2022/01/03 01:45:07;;;;;;;49.95;10.98;;;11.30;99.90;;;11.42;89.60;100999.06;5070921;28;20044;-70
2022/01/03 01:47:40;;;;;;;53.58;10.77;;;11.20;99.90;;;11.47;89.53;101004.34;5088086;28;20056;-71
2022/01/03 01:50:11;;;;;;;52.88;10.45;;;11.20;99.90;;;11.43;89.44;101013.19;5104614;28;20040;-70
2022/01/03 01:52:40;;;;;;;51.72;10.38;;;11.20;99.90;;;11.36;89.57;100996.44;5074746;28;20388;-70
2022/01/03 01:55:13;;;;;;;56.63;10.75;;;11.20;99.90;;;11.46;89.72;101011.38;5074859;28;20044;-70
2022/01/03 01:57:58;;;;;;;56.08;10.02;;;11.30;99.90;;;11.41;89.62;101005.25;5074862;28;20060;-70
2022/01/03 02:00:36;;;;;;;52.80;11.90;;;11.30;99.90;;;11.31;89.98;100979.69;5074807;28;20044;-70
2022/01/03 02:03:27;;;;;;;56.35;10.98;;;11.20;99.90;;;11.43;90.07;101011.41;5074738;28;20052;-70
2022/01/03 02:06:17;;;;;;;48.20;9.98;;;11.20;99.90;;;11.49;89.92;101016.69;5074727;28;20052;-70
2022/01/03 02:08:54;;;;;;;47.03;10.52;;;11.30;99.90;;;11.39;90.05;101009.69;5075937;28;20048;-70
2022/01/03 02:11:35;;;;;;;53.97;10.68;;;11.20;99.90;;;11.34;89.85;101006.16;5074592;28;20056;-71
2022/01/03 02:14:05;;;;;;;50.67;11.25;;;11.20;99.90;;;11.45;89.82;101003.47;5074534;28;20094;-71
2022/01/03 02:16:34;;;;;;;48.47;10.70;;;11.20;99.90;;;11.43;89.72;101013.19;5075700;28;20048;-71
2022/01/03 02:19:02;;;;;;;44.15;9.88;;;11.20;99.90;;;11.42;89.87;101017.59;5074107;28;20054;-69
2022/01/03 02:21:32;;;;;;;45.70;10.32;;;11.20;99.90;;;11.46;89.52;101007.84;5108234;28;20059;-70
2022/01/03 02:24:01;;;;;;;54.45;9.43;;;11.30;99.90;;;11.46;89.62;101006.09;5074432;28;20052;-70
2022/01/03 02:26:30;;;;;;;58.45;11.30;;;11.20;99.90;;;11.40;89.87;101010.56;5074526;28;20515;-71
2022/01/03 02:28:59;;;;;;;55.73;11.60;;;11.20;99.90;;;11.40;89.67;101016.72;5091176;28;20052;-70
2022/01/03 02:31:28;;;;;;;50.10;11.20;;;11.20;99.90;;;11.46;89.76;101008.75;5075156;28;20471;-70
2022/01/03 02:33:57;;;;;;;50.85;10.93;;;11.20;99.90;;;11.39;89.97;101017.63;5074168;28;20477;-70
2022/01/03 02:36:26;;;;;;;53.67;11.27;;;11.20;99.90;;;11.46;89.93;101015.78;5074051;28;20045;-70
2022/01/03 02:38:58;;;;;;;57.00;10.15;;;11.20;99.90;;;11.38;89.90;101004.41;5074266;28;20409;-71
2022/01/03 02:41:28;;;;;;;60.25;11.63;;;11.20;99.90;;;11.32;90.41;101007.06;5073532;28;20045;-71
2022/01/03 02:43:59;;;;;;;52.60;11.95;;;11.10;99.90;;;11.35;90.19;101007.94;5074263;28;20083;-70
2022/01/03 02:46:29;;;;;;;55.88;11.68;;;11.20;99.90;;;11.37;90.30;101007.91;5072830;28;20064;-70
2022/01/03 02:48:58;;;;;;;62.67;12.50;;;11.20;99.90;;;11.37;90.50;101018.50;5073057;28;20383;-70
2022/01/03 02:51:26;;;;;;;58.35;11.27;;;11.10;99.90;;;11.37;90.44;101019.41;5074380;28;20040;-70
2022/01/03 02:53:55;;;;;;;59.10;11.23;;;11.20;99.90;;;11.31;90.97;100992.94;5106766;28;20049;-70
2022/01/03 02:56:24;;;;;;;57.60;11.65;;;11.10;99.90;;;11.32;90.68;101015.91;5072980;28;20144;-70
2022/01/03 02:58:53;;;;;;;65.78;11.82;;;11.10;99.90;;;11.08;90.57;100952.47;5074230;28;20048;-70
2022/01/03 03:01:21;;;;;;;58.28;11.32;;;11.20;99.90;;;11.29;90.90;101009.72;5072545;28;20052;-69
2022/01/03 03:03:51;;;;;;;62.67;12.40;;;11.10;99.90;;;11.30;90.95;101004.44;5072987;28;20490;-70
2022/01/03 03:06:20;;;;;;;55.03;11.15;;;11.10;99.90;;;11.34;91.02;101021.19;5072958;28;20049;-70
2022/01/03 03:08:48;;;;;;;58.47;12.20;;;11.10;99.90;;;11.34;91.14;101000.84;5072827;28;20048;-70
2022/01/03 03:11:16;;;;;;;62.17;11.40;;;11.10;99.90;;;11.19;91.24;100995.66;5072740;28;20056;-70
2022/01/03 03:13:46;;;;;;;62.70;10.82;;;11.10;99.90;;;11.31;91.32;101016.78;5073887;28;20051;-70
2022/01/03 03:16:15;;;;;;;61.50;11.38;;;11.10;99.90;;;11.39;91.34;101022.03;5073895;28;20044;-70
2022/01/03 03:18:44;;;;;;;65.63;12.38;;;11.20;99.90;;;11.35;91.79;101012.34;5073863;28;20505;-70
2022/01/03 03:21:13;;;;;;;62.63;11.37;;;11.20;99.90;;;11.35;91.94;101013.22;5089454;28;20414;-70
2022/01/03 03:23:41;;;;;;;67.25;10.93;;;11.10;99.90;;;11.41;91.92;101004.38;5072778;28;20338;-70
2022/01/03 03:26:10;;;;;;;62.80;11.98;;;11.20;99.90;;;11.40;92.00;101006.13;5072636;28;20056;-70
2022/01/03 03:28:39;;;;;;;64.78;11.85;;;11.20;99.90;;;11.47;92.29;101010.50;5072250;28;20131;-70
2022/01/03 03:31:10;;;;;;;72.85;12.88;;;11.20;99.90;;;11.42;92.48;100998.19;5072097;28;20044;-70
2022/01/03 03:33:41;;;;;;;61.00;11.80;;;11.20;99.90;;;11.35;92.78;101012.34;5072178;28;20186;-70
2022/01/03 03:36:09;;;;;;;69.72;12.10;;;11.10;99.90;;;11.35;92.73;100999.09;5071963;28;20044;-70
2022/01/03 03:38:39;;;;;;;67.03;11.60;;;11.10;99.90;;;11.33;92.81;101003.53;5071941;28;20076;-70
2022/01/03 03:41:12;;;;;;;64.43;12.10;;;11.10;99.90;;;11.33;92.44;100999.13;5071992;28;20121;-70
2022/01/03 03:43:46;;;;;;;73.85;11.27;;;11.20;99.90;;;11.33;92.48;100987.63;5071839;28;20053;-70
2022/01/03 03:46:16;;;;;;;58.05;10.95;;;11.10;99.90;;;11.34;92.54;100994.72;5071799;28;20048;-70
2022/01/03 03:48:44;;;;;;;64.35;12.95;;;11.10;99.90;;;11.33;92.99;100987.63;5071770;28;20076;-70
2022/01/03 03:51:18;;;;;;;67.80;12.80;;;11.10;99.90;;;11.42;92.70;101001.69;5071785;28;20094;-70
2022/01/03 03:53:48;;;;;;;67.90;12.43;;;11.20;99.90;;;11.39;92.76;100993.78;5071228;28;20118;-70
2022/01/03 03:56:18;;;;;;;59.50;12.10;;;11.20;99.90;;;11.37;93.03;100995.56;5073107;28;20051;-70
2022/01/03 03:58:46;;;;;;;68.70;13.43;;;11.20;99.90;;;11.37;93.05;100979.66;5073042;28;20040;-70
2022/01/03 04:01:16;;;;;;;68.43;11.90;;;11.20;99.90;;;11.36;93.36;100977.91;5071514;28;20406;-70
2022/01/03 04:03:50;;;;;;;68.88;13.98;;;11.20;99.90;;;11.37;93.44;100982.31;5071678;28;20056;-70
2022/01/03 04:06:19;;;;;;;68.22;13.23;;;11.20;99.90;;;11.43;93.29;100982.28;5071776;28;20049;-69
2022/01/03 04:08:51;;;;;;;62.72;12.15;;;11.20;99.90;;;11.43;93.69;100973.44;5071641;28;20049;-70
2022/01/03 04:11:20;;;;;;;74.78;12.73;;;11.20;99.90;;;11.45;93.99;100987.56;5072830;28;20411;-70
2022/01/03 04:13:49;;;;;;;67.22;12.73;;;11.30;99.90;;;11.42;94.22;100977.00;5070594;28;20084;-70
2022/01/03 04:16:18;;;;;;;55.30;11.43;;;11.20;99.90;;;11.44;93.89;100978.72;5072723;28;20053;-70
2022/01/03 04:18:47;;;;;;;75.43;12.88;;;11.20;99.90;;;11.46;94.10;100973.41;5071322;28;20052;-71
2022/01/03 04:21:16;;;;;;;71.30;13.68;;;11.20;99.90;;;11.46;94.03;100981.38;5072532;28;20113;-70
2022/01/03 04:23:45;;;;;;;76.63;13.75;;;11.20;99.90;;;11.46;94.26;100976.06;5105188;28;20045;-70
2022/01/03 04:26:13;;;;;;;79.55;13.15;;;11.20;99.90;;;11.46;94.01;100971.66;5071117;28;20056;-71
2022/01/03 04:28:41;;;;;;;80.93;12.30;;;11.30;99.90;;;11.41;94.37;100976.13;5087909;28;20041;-70
2022/01/03 04:31:10;;;;;;;69.03;13.23;;;11.20;99.90;;;11.38;94.71;100972.63;5070980;28;20139;-70
2022/01/03 04:33:40;;;;;;;63.30;13.73;;;11.20;99.90;;;11.44;94.60;100967.28;5072260;28;20041;-71
2022/01/03 04:36:10;;;;;;;79.88;13.13;;;11.20;99.90;;;11.35;94.18;100960.25;5070944;28;20102;-70
2022/01/03 04:38:39;;;;;;;65.80;12.20;;;11.20;99.90;;;11.46;94.33;100974.31;5070963;28;20052;-70
2022/01/03 04:41:08;;;;;;;68.90;13.07;;;11.20;99.90;;;11.49;93.95;100974.31;5104732;28;20048;-70
2022/01/03 04:43:39;;;;;;;65.55;11.13;;;11.30;99.90;;;11.54;93.42;100966.31;5070612;28;20056;-70
2022/01/03 04:46:09;;;;;;;68.88;12.82;;;11.30;99.90;;;11.52;93.71;100968.97;5070991;28;20158;-70
2022/01/03 04:48:38;;;;;;;67.13;12.70;;;11.30;99.90;;;11.53;93.26;100964.56;5072222;28;20059;-70
2022/01/03 04:51:10;;;;;;;66.57;11.98;;;11.30;99.90;;;11.56;93.32;100964.53;5071019;28;20049;-70
2022/01/03 04:53:40;;;;;;;61.50;12.40;;;11.30;99.90;;;11.41;93.43;100944.34;5072201;28;20391;-70
2022/01/03 04:56:10;;;;;;;62.63;11.75;;;11.30;99.90;;;11.48;93.56;100967.22;5072276;28;20479;-70
2022/01/03 04:58:40;;;;;;;63.30;12.18;;;11.30;99.90;;;11.42;93.76;100961.97;5071840;28;20040;-70
2022/01/03 05:01:10;;;;;;;67.77;12.73;;;11.20;99.90;;;11.37;93.74;100932.00;5104565;28;20044;-70
2022/01/03 05:03:39;;;;;;;53.15;11.15;;;11.30;99.90;;;11.48;93.99;100963.69;5071986;28;20390;-70
2022/01/03 05:06:09;;;;;;;62.60;11.70;;;11.30;99.90;;;11.48;93.55;100939.84;5070474;28;20044;-72
2022/01/03 05:08:37;;;;;;;73.25;13.10;;;11.30;99.90;;;11.35;93.74;100947.03;5071959;28;20414;-69
2022/01/03 05:11:06;;;;;;;63.80;12.48;;;11.30;99.90;;;11.49;93.89;100953.13;5071646;28;20441;-70
2022/01/03 05:13:35;;;;;;;64.22;13.02;;;11.30;99.90;;;10.94;93.52;100855.53;5071166;28;20044;-68
2022/01/03 05:16:05;;;;;;;53.78;11.70;;;11.30;99.90;;;11.51;93.43;100932.78;5071809;28;20044;-68
2022/01/03 05:18:34;;;;;;;61.43;12.47;;;11.30;99.90;;;11.49;93.78;100937.22;5070391;28;20064;-70
2022/01/03 05:21:03;;;;;;;62.25;12.07;;;11.30;99.90;;;11.54;93.49;100929.22;5104102;28;20330;-69
2022/01/03 05:23:34;;;;;;;58.28;12.25;;;11.30;99.90;;;11.52;93.76;100944.25;5070637;28;20106;-70
2022/01/03 05:26:05;;;;;;;61.50;11.77;;;11.30;99.90;;;11.42;94.14;100939.94;5073554;28;20057;-70
2022/01/03 05:28:34;;;;;;;59.67;12.05;;;11.20;99.90;;;11.47;94.47;100941.66;5074294;28;20231;-70
2022/01/03 05:31:03;;;;;;;64.60;13.10;;;11.30;99.90;;;11.49;94.32;100941.63;5074226;28;20109;-72
2022/01/03 05:33:32;;;;;;;63.42;12.07;;;11.30;99.90;;;11.46;94.43;100931.94;5075517;28;20131;-70
2022/01/03 05:36:01;;;;;;;67.00;11.32;;;11.20;99.90;;;11.41;94.97;100944.34;5074146;28;20453;-71
2022/01/03 05:38:31;;;;;;;65.30;12.15;;;11.20;99.90;;;11.48;94.80;100940.75;5074175;28;20458;-70
2022/01/03 05:41:01;;;;;;;66.78;11.50;;;11.20;99.90;;;11.41;94.48;100923.16;5074139;28;20163;-71
2022/01/03 05:43:30;;;;;;;;;;;11.30;99.90;;;11.50;94.71;100922.19;5074531;28;20048;-70
2022/01/03 05:45:59;;;;;;;66.38;11.95;;;11.30;99.90;;;11.43;94.40;100937.25;5075330;28;20043;-69
2022/01/03 05:48:28;;;;;;;61.50;11.65;;;11.30;99.90;;;11.44;94.61;100933.72;5074152;28;20435;-70
2022/01/03 05:50:57;;;;;;;57.22;12.02;;;11.20;99.90;;;11.39;94.74;100935.53;5075282;28;20197;-70
2022/01/03 05:53:27;;;;;;;59.88;10.88;;;11.20;99.90;;;11.38;94.67;100932.88;5090654;28;20063;-70
2022/01/03 05:55:56;;;;;;;64.00;12.60;;;11.10;99.90;;;11.43;94.53;100931.06;5073904;28;20405;-70
2022/01/03 05:58:26;;;;;;;64.22;11.82;;;11.20;99.90;;;11.38;94.18;100939.03;5075303;28;20040;-70
2022/01/03 06:00:55;;;;;;;58.78;10.23;;;11.20;99.90;;;11.37;94.43;100944.34;5073830;28;20079;-70
2022/01/03 06:03:24;;;;;;;62.95;11.55;;;11.20;99.90;;;11.41;94.56;100943.44;5074895;28;20490;-70
2022/01/03 06:06:18;;;;;;;63.88;11.77;;;11.20;99.90;;;11.33;94.26;100927.63;5074882;28;20052;-70
2022/01/03 06:08:47;;;;;;;62.65;10.75;;;11.20;99.90;;;11.39;94.32;100943.47;5074026;28;20159;-70
2022/01/03 06:11:16;;;;;;;63.83;11.00;;;11.20;99.90;;;11.45;94.18;100946.06;5073658;28;20135;-70
2022/01/03 06:13:46;;;;;;;58.85;10.73;;;11.20;99.90;;;11.46;93.91;100931.03;5073883;28;20097;-70
2022/01/03 06:16:15;;;;;;;;;;;11.30;99.90;;;11.51;93.81;100940.75;5074227;28;20045;-70
2022/01/03 06:18:45;;;;;;;67.68;12.07;;;11.30;99.90;;;11.59;93.68;100933.59;5090356;28;19924;-70
2022/01/03 06:21:13;;;;;;;61.30;12.20;;;11.40;99.90;;;11.62;93.56;100938.00;5074578;28;20527;-71
2022/01/03 06:23:46;;;;;;;;;;;11.40;99.90;;;11.66;93.53;100930.06;5073867;28;20064;-71
2022/01/03 06:26:15;;;;;;;63.47;12.48;;;11.40;99.90;;;11.60;93.47;100919.47;5090242;28;19934;-70
2022/01/03 06:28:51;;;;;;;63.83;12.05;;;11.40;99.90;;;11.53;94.12;100916.88;5073382;28;20131;-70
2022/01/03 06:31:22;;;;;;;63.33;12.25;;;11.30;99.90;;;11.59;94.23;100919.50;5073209;28;20060;-70
2022/01/03 06:33:51;;;;;;;66.55;13.10;;;11.30;99.90;;;11.60;93.26;100927.41;5073029;28;20045;-70
2022/01/03 06:36:20;;;;;;;64.18;12.77;;;11.40;99.90;;;11.62;92.97;100915.03;5072204;28;20074;-70
2022/01/03 06:38:54;;;;;;;60.33;12.18;;;11.40;99.90;;;11.55;93.07;100916.00;5073104;28;20048;-70
2022/01/03 06:41:23;;;;;;;58.63;10.65;;;11.30;99.90;;;11.57;92.89;100903.63;5072933;28;20048;-70
2022/01/03 06:43:53;;;;;;;62.25;10.93;;;11.30;99.90;;;10.85;93.54;100800.88;5072582;28;20076;-70
2022/01/03 06:46:23;;;;;;;61.33;12.30;;;11.20;99.90;;;11.51;93.33;100905.41;5089709;28;20505;-70
2022/01/03 06:48:51;;;;;;;56.95;11.75;;;11.30;99.90;;;11.44;93.56;100901.94;5072739;28;20040;-71
2022/01/03 06:51:20;;;;;;;57.25;10.90;;;11.30;99.90;;;11.45;93.69;100906.34;5072716;28;20455;-69
2022/01/03 06:53:49;;;;;;;65.90;10.85;;;11.20;99.90;;;11.37;93.49;100910.81;5106304;28;20072;-70
2022/01/03 06:56:17;;;;;;;67.85;11.43;;;11.20;99.90;;;11.42;93.40;100898.41;5106451;27;20067;-70
2022/01/03 06:58:46;;;;;;;66.20;11.77;;;11.20;99.90;;;11.34;93.47;100902.03;5072249;28;20040;-70
2022/01/03 07:01:17;;;;;;;66.88;11.25;;;11.20;99.90;;;11.37;93.67;100899.34;5072530;28;20071;-70
2022/01/03 07:03:46;;;;;;;62.55;12.45;;;11.10;99.90;;;11.25;93.56;100884.41;5072622;28;20052;-70
2022/01/03 07:06:14;;;;;;;67.93;11.77;;;11.10;99.90;;;11.40;93.53;100915.22;5073715;28;20219;-70
2022/01/03 07:08:43;;;;;;;55.78;10.63;;;11.20;99.90;;;11.34;93.55;100912.63;5072550;28;20095;-69
2022/01/03 07:11:11;;;;;;;67.80;11.43;;;11.10;99.90;;;11.40;93.25;100915.22;5073387;28;20434;-69
2022/01/03 07:13:46;;;;;;;56.05;11.57;;;11.20;99.90;;;11.40;92.85;100918.72;5073157;28;20037;-70
2022/01/03 07:19:06;;;;;;;61.67;10.38;;;11.10;99.90;;;11.31;93.11;100915.25;5073308;28;20405;-69
2022/01/03 07:21:35;;;;;;;61.22;11.27;;;11.10;99.90;;;11.37;93.12;100916.13;5073261;28;20048;-69
2022/01/03 07:24:05;;;;;;;51.92;11.40;;;11.10;99.90;;;11.36;93.26;100924.06;5073413;28;20056;-69
2022/01/03 07:26:34;;;;;;;62.65;12.40;;;11.10;99.90;;;11.42;93.26;100931.97;5073129;28;20040;-70
2022/01/03 07:29:02;;;;;;;55.65;10.77;;;11.20;99.90;;;11.37;93.09;100932.00;5072984;28;20033;-70
2022/01/03 07:31:32;;;;;;;60.55;12.27;;;11.20;99.90;;;11.43;93.34;100929.31;5072887;28;20404;-70
2022/01/03 07:34:01;;;;;;;67.22;12.23;;;11.20;99.90;;;11.39;93.19;100930.22;5072838;28;20059;-70
2022/01/03 07:36:30;;;;;;;59.58;11.82;;;11.20;99.90;;;11.39;93.18;100930.22;5072951;28;20124;-69
2022/01/03 07:38:58;;;;;;;56.65;11.30;;;11.10;99.90;;;11.39;93.16;100921.41;5073272;28;20099;-70
2022/01/03 07:41:29;;;;;;;65.72;12.10;;;11.20;99.90;;;11.36;93.17;100919.63;5073187;28;20053;-70
2022/01/03 07:43:58;;;;;;;60.45;11.90;;;11.10;99.90;;;11.42;92.91;100924.03;5072031;28;20178;-70
2022/01/03 07:46:26;;;;;;;53.67;10.85;;;11.20;99.90;;;11.45;92.43;100926.66;5072555;28;20056;-70
2022/01/03 07:48:56;;;;;;;64.47;11.32;;;11.20;99.90;;;11.36;92.06;100924.06;5072795;28;20090;-69
2022/01/03 07:51:25;;;;;;;66.93;11.57;;;11.20;99.90;;;11.27;92.29;100926.75;5073027;28;20458;-70
2022/01/03 07:53:53;;;;;;;64.78;13.30;;;11.10;99.90;;;11.46;92.16;100929.28;5072012;28;20303;-70
2022/01/03 07:56:25;;;;;;;65.32;12.65;;;11.20;99.90;;;11.46;92.20;100926.63;5072319;28;20110;-71
2022/01/03 07:58:53;;;;;;;68.80;11.20;;;11.20;99.90;;;11.39;92.52;100927.56;5072275;28;20044;-70
2022/01/03 08:01:22;;;;;;;64.70;11.68;;;11.20;99.90;;;11.40;92.84;100929.31;5071054;28;20405;-70
2022/01/03 08:03:51;;;;;;;63.97;11.95;;;11.20;99.90;;;11.42;92.95;100924.91;5072290;28;20041;-70
2022/01/03 08:06:41;;;;;;;65.45;13.05;;;11.20;99.90;;;11.42;92.92;100919.59;5072694;28;20048;-70
2022/01/03 08:09:09;;;;;;;60.87;11.73;;;11.20;99.90;;;11.40;93.08;100925.81;5072433;28;20398;-69
2022/01/03 08:11:38;;;;;;;53.65;10.63;;;11.10;99.90;;;11.45;92.95;100916.06;5072250;28;20410;-69
2022/01/03 08:14:06;;;;;;;57.42;11.63;;;11.20;99.90;;;11.42;92.97;100919.59;5071814;28;20067;-69
2022/01/03 08:16:35;;;;;;;67.20;12.00;;;11.20;99.90;;;11.43;92.76;100921.38;5072235;28;20087;-70
2022/01/03 08:19:03;;;;;;;60.58;12.52;;;11.20;99.90;;;11.45;92.90;100919.59;5072203;28;20055;-68
2022/01/03 08:21:32;;;;;;;64.95;11.25;;;11.20;99.90;;;11.39;92.88;100914.34;5072128;28;20403;-67
2022/01/03 08:24:02;;;;;;;51.88;11.70;;;11.20;99.90;;;11.41;93.28;100928.44;5072360;28;20048;-68
2022/01/03 08:26:31;;;;;;;61.35;10.50;;;11.10;99.90;;;11.44;92.97;100928.41;5072331;28;20044;-71
2022/01/03 08:28:59;;;;;;;61.88;11.80;;;11.20;99.90;;;11.43;92.90;100937.25;5071927;28;20135;-69
2022/01/03 08:31:28;;;;;;;67.28;14.38;;;11.20;99.90;;;11.38;92.95;100946.13;5072369;28;20075;-69
2022/01/03 08:33:56;;;;;;;69.60;12.88;;;11.20;99.90;;;11.40;93.05;100947.84;5071657;28;20455;-71
2022/01/03 08:36:25;;;;;;;59.00;10.65;;;11.20;99.90;;;11.38;93.02;100954.94;5071869;28;20056;-67
2022/01/03 08:38:53;;;;;;;65.95;11.90;;;11.10;99.90;;;11.45;92.70;100955.78;5072270;28;20076;-67
2022/01/03 08:41:23;;;;;;;48.90;11.50;;;11.20;99.90;;;11.50;92.39;100959.28;5071934;28;20044;-68
2022/01/03 08:43:53;;;;;;;57.93;11.33;;;11.20;99.90;;;11.58;91.92;100950.38;5071265;28;20056;-69
2022/01/03 08:46:23;;;;;;;58.40;11.93;;;11.30;99.90;;;11.55;92.16;100952.19;5071956;28;20369;-67
2022/01/03 08:48:53;;;;;;;62.72;11.55;;;11.30;99.90;;;11.54;92.27;100961.91;5072356;28;20051;-70
2022/01/03 08:51:22;;;;;;;53.47;11.17;;;11.30;99.90;;;11.55;91.93;100953.06;5071876;28;20450;-67
2022/01/03 08:53:50;;;;;;;57.60;12.43;;;11.30;99.90;;;11.54;91.74;100939.81;5071911;28;20056;-68
2022/01/03 08:56:19;;;;;;;65.90;12.48;;;11.30;99.90;;;11.54;91.67;100929.22;5071831;28;20078;-69
2022/01/03 08:58:49;;;;;;;65.55;12.40;;;11.30;99.90;;;11.53;91.53;100933.66;5072299;28;20056;-70
2022/01/03 09:01:18;;;;;;;58.25;11.30;;;11.30;99.90;;;11.45;91.61;100935.47;5071854;28;20041;-70
2022/01/03 09:03:50;;;;;;;68.10;12.07;;;11.20;99.90;;;11.53;91.66;100936.31;5071529;28;20033;-70
2022/01/03 09:06:19;;;;;;;54.28;11.80;;;11.30;99.90;;;11.52;91.53;100926.59;5072133;28;20055;-70
2022/01/03 09:08:48;;;;;;;61.28;12.55;;;11.30;99.90;;;11.39;91.51;100908.16;5071617;28;20041;-69
2022/01/03 09:11:18;;;;;;;56.10;11.43;;;11.30;99.90;;;11.57;91.56;100929.22;5071655;28;20106;-67
2022/01/03 09:13:48;;;;;;;56.80;11.20;;;11.30;99.90;;;11.55;91.74;100923.06;5072134;28;20059;-68
2022/01/03 09:16:17;;;;;;;60.22;11.57;;;11.30;99.90;;;11.55;91.52;100926.59;5072366;28;20040;-68
2022/01/03 09:18:46;;;;;;;67.20;12.18;;;11.30;99.90;;;11.53;91.82;100920.41;5071971;28;20344;-69
2022/01/03 09:21:14;;;;;;;57.10;11.25;;;11.30;99.90;;;11.58;91.96;100928.31;5071514;28;20142;-67
2022/01/03 09:23:47;;;;;;;64.22;12.60;;;11.30;99.90;;;11.58;91.75;100915.94;5071333;28;20040;-66
2022/01/03 09:29:03;;;;;;;60.03;12.15;;;11.30;99.90;;;11.62;91.96;100911.50;5071443;28;20084;-69
2022/01/03 09:31:35;;;;;;;55.05;10.70;;;11.30;99.90;;;10.23;91.71;100662.91;5071670;28;20041;-68
2022/01/03 09:34:07;;;;;;;64.32;11.93;;;11.40;99.90;;;11.66;92.09;100911.50;5071225;28;20490;-67
2022/01/03 09:36:36;;;;;;;69.60;12.65;;;11.40;99.90;;;11.63;92.14;100922.06;5071293;28;20379;-68
2022/01/03 09:39:06;;;;;;;57.65;11.95;;;11.40;99.90;;;11.60;92.30;100916.81;5071471;28;20063;-68
2022/01/03 09:41:35;;;;;;;56.63;11.75;;;11.40;99.90;;;11.63;92.30;100922.06;5071620;28;20044;-66
2022/01/03 09:44:11;;;;;;;55.22;10.70;;;11.40;99.90;;;11.56;92.56;100911.53;5071133;28;20044;-71
2022/01/03 09:46:43;;;;;;;55.85;10.88;;;11.30;99.90;;;11.67;92.76;100907.09;5071113;28;20044;-68
2022/01/03 09:49:14;;;;;;;53.30;11.23;;;11.40;99.90;;;11.69;92.38;100903.53;5071556;28;20059;-70
2022/01/03 09:51:44;;;;;;;;;;;11.40;99.90;;;11.70;92.53;100910.59;5071283;28;20068;-68
2022/01/03 09:54:15;;;;;;;50.38;10.23;;;11.50;99.90;;;11.77;92.55;100912.28;5071397;28;19927;-69
2022/01/03 09:56:44;;;;;;;50.85;11.05;;;11.50;99.90;;;11.90;92.56;100912.19;5071142;28;20098;-70
2022/01/03 09:59:15;;;;;;;50.80;10.68;;;11.60;99.90;;;12.13;92.03;100900.47;5070796;28;20041;-67
2022/01/03 10:01:45;;;;;;;56.88;11.52;;;11.80;99.90;;;12.22;91.14;100912.75;5070839;28;20043;-68
2022/01/03 10:04:15;;;;;;;52.42;10.57;;;11.90;99.90;;;12.18;90.38;100914.56;5069927;28;20049;-68
2022/01/03 10:06:44;;;;;;;47.10;9.85;;;12.00;99.90;;;12.15;90.38;100925.19;5071072;28;20102;-68
2022/01/03 10:09:12;;;;;;;58.13;11.57;;;11.90;99.90;;;12.14;90.23;100909.28;5070882;28;20061;-68
2022/01/03 10:11:41;;;;;;;46.47;10.45;;;11.90;99.90;;;12.20;89.95;100927.78;5071705;28;20055;-68
2022/01/03 10:14:11;;;;;;;53.30;9.52;;;11.90;99.90;;;12.26;89.51;100915.34;5074746;28;20044;-68
2022/01/03 10:16:42;;;;;;;50.50;9.88;;;12.00;99.90;;;12.21;89.76;100918.97;5074420;28;20531;-68
2022/01/03 10:19:21;;;;;;;47.90;9.90;;;12.00;99.90;;;12.20;90.09;100907.47;5074385;28;20045;-70
2022/01/03 10:21:51;;;;;;;47.17;9.88;;;12.00;99.90;;;12.33;89.98;100908.22;5074282;28;20576;-67
2022/01/03 10:24:31;;;;;;;;;;;12.10;99.90;;;12.33;89.97;100900.28;5073607;28;20393;-71